createdAt,value
2023-04-30T00:02:23.877Z,101445.59
2023-04-30T00:04:51.340Z,101436.69
2023-04-30T00:07:18.489Z,101434.09
2023-04-30T00:09:45.657Z,101441.28
2023-04-30T00:12:12.826Z,101436.91
2023-04-30T00:14:39.990Z,101441.28
2023-04-30T00:17:07.259Z,101435.94
2023-04-30T00:19:34.595Z,101439.47
2023-04-30T00:22:01.751Z,101439.72
2023-04-30T00:24:29.429Z,101446.78
2023-04-30T00:26:56.574Z,101448.59
2023-04-30T00:29:23.774Z,101445.06
2023-04-30T00:31:51.052Z,101453.97
2023-04-30T00:34:18.358Z,101452.13
2023-04-30T00:36:45.639Z,101452.22
2023-04-30T00:39:12.849Z,101460.28
2023-04-30T00:41:40.602Z,101469.28
2023-04-30T00:44:08.281Z,101468.44
2023-04-30T00:46:35.650Z,101468.44
2023-04-30T00:49:04.963Z,101464.06
2023-04-30T00:51:33.161Z,101475.63
2023-04-30T00:54:03.130Z,101482.69
2023-04-30T00:56:31.323Z,101478.31
2023-04-30T00:58:59.110Z,101489.03
2023-04-30T01:01:28.918Z,101491.72
2023-04-30T01:03:56.247Z,101492.66
2023-04-30T01:06:23.840Z,101499.00
2023-04-30T01:08:51.363Z,101497.28
2023-04-30T01:11:40.172Z,101499.97
2023-04-30T01:14:25.386Z,101498.16
2023-04-30T01:17:06.265Z,101499.97
2023-04-30T01:19:43.607Z,101508.97
2023-04-30T01:22:28.281Z,101506.28
2023-04-30T01:25:16.983Z,101508.97
2023-04-30T01:28:06.929Z,101515.28
2023-04-30T01:30:35.311Z,101514.44
2023-04-30T01:33:03.376Z,101523.34
2023-04-30T01:35:57.682Z,101511.88
2023-04-30T01:38:46.879Z,101513.59
2023-04-30T01:41:34.571Z,101526.03
2023-04-30T01:44:25.624Z,101523.56
2023-04-30T01:47:05.423Z,101525.28
2023-04-30T01:49:48.975Z,101525.28
2023-04-30T01:52:22.253Z,101527.09
2023-04-30T01:55:00.895Z,101534.28
2023-04-30T01:57:38.847Z,101544.16
2023-04-30T02:00:10.850Z,101543.28
2023-04-30T02:02:38.193Z,101541.47
2023-04-30T02:05:05.633Z,101545.97
2023-04-30T02:07:41.713Z,101549.63
2023-04-30T02:10:09.818Z,101546.06
2023-04-30T02:12:37.019Z,101555.00
2023-04-30T02:15:06.233Z,101553.25
2023-04-30T02:17:34.012Z,101556.91
2023-04-30T02:20:01.379Z,101565.94
2023-04-30T02:22:28.674Z,101560.56
2023-04-30T02:24:57.207Z,101560.44
2023-04-30T02:27:26.095Z,101562.28
2023-04-30T02:29:53.777Z,101570.31
2023-04-30T02:32:21.622Z,101569.53
2023-04-30T02:34:48.831Z,101573.00
2023-04-30T02:37:16.085Z,101573.97
2023-04-30T02:39:43.324Z,101567.72
2023-04-30T02:42:11.181Z,101568.81
2023-04-30T02:44:38.342Z,101574.91
2023-04-30T02:47:05.749Z,101574.91
2023-04-30T02:49:32.891Z,101576.72
2023-04-30T02:52:00.160Z,101573.19
2023-04-30T02:54:27.437Z,101581.31
2023-04-30T02:56:54.683Z,101578.78
2023-04-30T02:59:21.857Z,101581.31
2023-04-30T03:01:49.374Z,101585.84
2023-04-30T03:04:16.691Z,101582.22
2023-04-30T03:06:43.957Z,101590.34
2023-04-30T03:09:11.281Z,101599.25
2023-04-30T03:11:38.485Z,101600.22
2023-04-30T03:14:05.748Z,101601.19
2023-04-30T03:16:33.031Z,101606.53
2023-04-30T03:19:00.312Z,101608.47
2023-04-30T03:21:27.505Z,101614.69
2023-04-30T03:23:54.699Z,101610.16
2023-04-30T03:26:22.108Z,101620.81
2023-04-30T03:28:49.538Z,101615.66
2023-04-30T03:31:16.997Z,101621.97
2023-04-30T03:33:44.312Z,101613.81
2023-04-30T03:36:11.735Z,101619.28
2023-04-30T03:38:38.990Z,101619.28
2023-04-30T03:41:06.266Z,101621.22
2023-04-30T03:43:33.577Z,101616.81
2023-04-30T03:46:00.796Z,101619.38
2023-04-30T03:48:28.019Z,101624.66
2023-04-30T03:50:55.352Z,101623.88
2023-04-30T03:53:22.582Z,101626.56
2023-04-30T03:55:50.430Z,101625.59
2023-04-30T03:58:17.606Z,101640.94
2023-04-30T04:00:45.797Z,101633.75
2023-04-30T04:03:13.436Z,101642.66
2023-04-30T04:05:41.169Z,101649.06
2023-04-30T04:08:08.571Z,101641.03
2023-04-30T04:10:36.158Z,101649.06
2023-04-30T04:13:03.470Z,101649.06
2023-04-30T04:15:30.983Z,101651.00
2023-04-30T04:17:58.321Z,101656.25
2023-04-30T04:20:25.607Z,101663.44
2023-04-30T04:22:53.018Z,101664.28
2023-04-30T04:25:20.574Z,101664.28
2023-04-30T04:27:47.762Z,101674.03
2023-04-30T04:30:15.105Z,101669.66
2023-04-30T04:32:46.903Z,101678.56
2023-04-30T04:35:15.460Z,101686.59
2023-04-30T04:37:42.649Z,101693.66
2023-04-30T04:40:13.598Z,101682.94
2023-04-30T04:42:40.786Z,101679.53
2023-04-30T04:45:08.555Z,101680.25
2023-04-30T04:47:36.472Z,101685.75
2023-04-30T04:50:03.699Z,101695.59
2023-04-30T04:52:30.956Z,101690.25
2023-04-30T04:54:58.157Z,101696.47
2023-04-30T04:57:27.594Z,101708.03
2023-04-30T04:59:55.103Z,101708.81
2023-04-30T05:02:23.485Z,101715.03
2023-04-30T05:04:51.503Z,101713.19
2023-04-30T05:07:18.920Z,101712.34
2023-04-30T05:09:48.891Z,101719.53
2023-04-30T05:12:16.156Z,101718.66
2023-04-30T05:14:43.945Z,101720.25
2023-04-30T05:17:11.158Z,101725.63
2023-04-30T05:19:38.333Z,101728.22
2023-04-30T05:22:05.767Z,101730.78
2023-04-30T05:24:32.958Z,101734.44
2023-04-30T05:27:00.308Z,101733.47
2023-04-30T05:29:27.530Z,101734.34
2023-04-30T05:31:54.908Z,101737.03
2023-04-30T05:34:22.208Z,101741.50
2023-04-30T05:36:49.736Z,101742.38
2023-04-30T05:39:17.012Z,101750.31
2023-04-30T05:41:44.228Z,101742.28
2023-04-30T05:44:11.406Z,101750.31
2023-04-30T05:46:38.594Z,101750.31
2023-04-30T05:49:05.775Z,101753.00
2023-04-30T05:51:33.023Z,101760.94
2023-04-30T05:54:00.468Z,101759.13
2023-04-30T05:56:27.707Z,101761.03
2023-04-30T05:58:54.911Z,101765.44
2023-04-30T06:01:23.132Z,101764.38
2023-04-30T06:03:50.500Z,101764.38
2023-04-30T06:06:17.772Z,101768.88
2023-04-30T06:08:45.642Z,101766.97
2023-04-30T06:11:13.699Z,101772.22
2023-04-30T06:13:41.283Z,101771.16
2023-04-30T06:16:08.896Z,101774.38
2023-04-30T06:18:36.308Z,101782.03
2023-04-30T06:21:03.529Z,101785.88
2023-04-30T06:23:30.713Z,101784.75
2023-04-30T06:25:58.073Z,101784.78
2023-04-30T06:28:25.457Z,101783.19
2023-04-30T06:30:54.259Z,101793.53
2023-04-30T06:33:21.638Z,101787.72
2023-04-30T06:35:50.866Z,101792.97
2023-04-30T06:38:18.285Z,101794.41
2023-04-30T06:40:45.468Z,101786.00
2023-04-30T06:43:12.645Z,101793.75
2023-04-30T06:45:40.490Z,101788.19
2023-04-30T06:48:08.025Z,101794.41
2023-04-30T06:50:35.400Z,101796.03
2023-04-30T06:53:02.886Z,101793.13
2023-04-30T06:55:30.242Z,101793.00
2023-04-30T06:57:57.979Z,101790.53
2023-04-30T07:00:25.314Z,101789.91
2023-04-30T07:02:52.677Z,101790.31
2023-04-30T07:05:19.975Z,101789.66
2023-04-30T07:07:47.167Z,101797.84
2023-04-30T07:10:14.460Z,101799.00
2023-04-30T07:12:41.666Z,101806.41
2023-04-30T07:15:09.206Z,101792.13
2023-04-30T07:17:37.139Z,101802.31
2023-04-30T07:20:05.494Z,101792.78
2023-04-30T07:22:32.804Z,101799.78
2023-04-30T07:25:00.684Z,101797.94
2023-04-30T07:27:28.297Z,101802.34
2023-04-30T07:29:56.376Z,101796.03
2023-04-30T07:32:26.976Z,101795.69
2023-04-30T07:34:54.479Z,101809.25
2023-04-30T07:37:21.970Z,101790.97
2023-04-30T07:39:49.209Z,101795.91
2023-04-30T07:42:16.616Z,101800.53
2023-04-30T07:44:43.989Z,101809.72
2023-04-30T07:47:11.196Z,101796.53
2023-04-30T07:49:38.438Z,101811.78
2023-04-30T07:52:06.235Z,101810.84
2023-04-30T07:54:36.413Z,101803.72
2023-04-30T07:57:03.720Z,101817.13
2023-04-30T07:59:31.074Z,101813.59
2023-04-30T08:01:58.468Z,101809.22
2023-04-30T08:04:25.853Z,101805.75
2023-04-30T08:06:53.274Z,101811.25
2023-04-30T08:09:20.547Z,101811.13
2023-04-30T08:11:47.792Z,101807.72
2023-04-30T08:14:14.984Z,101812.19
2023-04-30T08:16:42.180Z,101809.41
2023-04-30T08:19:09.364Z,101813.94
2023-04-30T08:21:36.581Z,101824.75
2023-04-30T08:24:03.918Z,101825.94
2023-04-30T08:26:31.192Z,101826.50
2023-04-30T08:28:58.390Z,101816.69
2023-04-30T08:31:25.626Z,101826.69
2023-04-30T08:33:52.918Z,101814.22
2023-04-30T08:36:20.348Z,101824.09
2023-04-30T08:38:47.777Z,101816.25
2023-04-30T08:41:19.671Z,101816.38
2023-04-30T08:43:49.512Z,101820.78
2023-04-30T08:46:17.942Z,101817.88
2023-04-30T08:48:45.753Z,101823.66
2023-04-30T08:51:12.968Z,101825.38
2023-04-30T08:53:41.145Z,101823.66
2023-04-30T08:56:11.232Z,101818.44
2023-04-30T08:58:38.487Z,101824.75
2023-04-30T09:01:09.091Z,101817.16
2023-04-30T09:03:36.763Z,101825.59
2023-04-30T09:06:04.125Z,101831.47
2023-04-30T09:08:44.206Z,101826.31
2023-04-30T09:11:22.807Z,101828.59
2023-04-30T09:13:54.938Z,101829.16
2023-04-30T09:16:23.522Z,101821.84
2023-04-30T09:18:53.637Z,101823.03
2023-04-30T09:21:34.751Z,101822.06
2023-04-30T09:24:04.189Z,101826.16
2023-04-30T09:26:36.436Z,101827.88
2023-04-30T09:29:07.984Z,101827.03
2023-04-30T09:31:36.458Z,101834.31
2023-04-30T09:34:04.471Z,101832.50
2023-04-30T09:36:31.907Z,101832.38
2023-04-30T09:39:15.501Z,101833.25
2023-04-30T09:41:43.755Z,101833.34
2023-04-30T09:44:28.440Z,101830.69
2023-04-30T09:46:57.949Z,101827.13
2023-04-30T09:49:26.435Z,101828.06
2023-04-30T09:52:01.485Z,101829.91
2023-04-30T09:54:32.830Z,101827.22
2023-04-30T09:57:02.607Z,101823.31
2023-04-30T09:59:32.009Z,101829.53
2023-04-30T10:02:03.316Z,101830.09
2023-04-30T10:04:36.496Z,101822.78
2023-04-30T10:07:17.108Z,101831.41
2023-04-30T10:09:51.313Z,101820.69
2023-04-30T10:12:40.616Z,101819.81
2023-04-30T10:15:14.354Z,101816.09
2023-04-30T10:17:44.433Z,101818.78
2023-04-30T10:20:13.280Z,101819.50
2023-04-30T10:22:41.899Z,101818.56
2023-04-30T10:25:13.282Z,101805.91
2023-04-30T10:27:40.789Z,101815.69
2023-04-30T10:30:12.040Z,101816.63
2023-04-30T10:32:58.674Z,101801.38
2023-04-30T10:35:35.720Z,101801.50
2023-04-30T10:38:23.993Z,101805.59
2023-04-30T10:41:00.184Z,101801.28
2023-04-30T10:43:30.111Z,101793.44
2023-04-30T10:46:00.843Z,101796.44
2023-04-30T10:48:30.427Z,101792.81
2023-04-30T10:51:00.777Z,101788.75
2023-04-30T10:53:31.884Z,101787.56
2023-04-30T10:56:08.706Z,101789.59
2023-04-30T10:58:40.248Z,101790.25
2023-04-30T11:01:13.690Z,101787.91
2023-04-30T11:03:43.587Z,101797.25
2023-04-30T11:06:15.585Z,101779.03
2023-04-30T11:08:46.430Z,101779.97
2023-04-30T11:11:20.874Z,101780.09
2023-04-30T11:13:53.526Z,101776.44
2023-04-30T11:16:20.848Z,101775.72
2023-04-30T11:18:48.313Z,101776.53
2023-04-30T11:21:15.502Z,101773.22
2023-04-30T11:23:44.341Z,101775.00
2023-04-30T11:26:11.712Z,101786.81
2023-04-30T11:28:39.133Z,101775.44
2023-04-30T11:31:06.580Z,101769.09
2023-04-30T11:33:35.231Z,101768.69
2023-04-30T11:36:03.233Z,101768.56
2023-04-30T11:38:34.427Z,101759.47
2023-04-30T11:41:02.603Z,101766.53
2023-04-30T11:43:31.895Z,101755.81
2023-04-30T11:46:29.300Z,101768.38
2023-04-30T11:48:58.587Z,101761.09
2023-04-30T11:51:26.798Z,101752.06
2023-04-30T11:53:54.453Z,101746.69
2023-04-30T11:56:25.601Z,101743.03
2023-04-30T11:58:55.766Z,101760.97
2023-04-30T12:01:26.008Z,101751.97
2023-04-30T12:03:55.233Z,101745.72
2023-04-30T12:06:27.632Z,101736.81
2023-04-30T12:08:56.165Z,101746.59
2023-04-30T12:11:27.875Z,101741.22
2023-04-30T12:14:11.139Z,101745.50
2023-04-30T12:16:49.211Z,101742.72
2023-04-30T12:19:17.550Z,101755.38
2023-04-30T12:21:47.153Z,101745.50
2023-04-30T12:24:15.805Z,101743.81
2023-04-30T12:26:43.028Z,101740.06
2023-04-30T12:29:12.699Z,101741.75
2023-04-30T12:31:42.487Z,101736.41
2023-04-30T12:34:11.495Z,101747.13
2023-04-30T12:36:42.444Z,101743.50
2023-04-30T12:39:10.322Z,101740.91
2023-04-30T12:41:41.761Z,101735.44
2023-04-30T12:44:16.086Z,101737.25
2023-04-30T12:46:43.739Z,101729.19
2023-04-30T12:49:11.307Z,101725.56
2023-04-30T12:51:41.588Z,101729.09
2023-04-30T12:54:08.879Z,101722.03
2023-04-30T12:56:35.973Z,101723.75
2023-04-30T12:59:03.122Z,101721.81
2023-04-30T13:01:30.307Z,101726.31
2023-04-30T13:03:57.546Z,101713.78
2023-04-30T13:06:29.172Z,101712.78
2023-04-30T13:08:58.945Z,101714.50
2023-04-30T13:11:27.215Z,101709.13
2023-04-30T13:13:55.728Z,101710.00
2023-04-30T13:16:24.735Z,101720.63
2023-04-30T13:18:52.845Z,101715.25
2023-04-30T13:21:21.091Z,101712.56
2023-04-30T13:23:52.548Z,101705.38
2023-04-30T13:26:21.830Z,101710.75
2023-04-30T13:28:50.053Z,101716.00
2023-04-30T13:31:17.231Z,101712.47
2023-04-30T13:33:44.420Z,101714.28
2023-04-30T13:36:11.811Z,101704.31
2023-04-30T13:38:39.545Z,101689.06
2023-04-30T13:41:06.758Z,101696.25
2023-04-30T13:43:33.966Z,101707.84
2023-04-30T13:46:01.496Z,101688.94
2023-04-30T13:48:28.633Z,101679.19
2023-04-30T13:50:55.760Z,101686.25
2023-04-30T13:53:22.900Z,101687.03
2023-04-30T13:55:50.004Z,101673.59
2023-04-30T13:58:17.587Z,101680.81
2023-04-30T14:00:44.807Z,101676.28
2023-04-30T14:03:12.538Z,101668.22
2023-04-30T14:05:40.043Z,101674.44
2023-04-30T14:08:07.217Z,101673.47
2023-04-30T14:10:34.362Z,101673.38
2023-04-30T14:13:01.481Z,101673.25
2023-04-30T14:15:30.629Z,101672.41
2023-04-30T14:17:58.037Z,101670.47
2023-04-30T14:20:25.685Z,101662.44
2023-04-30T14:22:52.998Z,101670.47
2023-04-30T14:25:20.720Z,101669.50
2023-04-30T14:27:48.171Z,101659.75
2023-04-30T14:30:15.654Z,101664.25
2023-04-30T14:32:43.651Z,101662.66
2023-04-30T14:35:11.376Z,101662.88
2023-04-30T14:37:38.621Z,101655.66
2023-04-30T14:40:07.873Z,101654.59
2023-04-30T14:42:35.055Z,101651.56
2023-04-30T14:45:02.234Z,101651.38
2023-04-30T14:47:29.385Z,101650.00
2023-04-30T14:49:58.797Z,101652.91
2023-04-30T14:52:26.152Z,101650.41
2023-04-30T14:54:53.454Z,101647.19
2023-04-30T14:57:20.806Z,101643.88
2023-04-30T14:59:48.145Z,101639.47
2023-04-30T15:02:15.524Z,101650.28
2023-04-30T15:04:46.032Z,101649.44
2023-04-30T15:07:13.369Z,101644.19
2023-04-30T15:09:40.838Z,101641.72
2023-04-30T15:12:08.026Z,101646.66
2023-04-30T15:14:35.247Z,101654.78
2023-04-30T15:17:02.433Z,101641.38
2023-04-30T15:19:29.753Z,101629.88
2023-04-30T15:21:56.938Z,101635.50
2023-04-30T15:24:24.084Z,101635.38
2023-04-30T15:26:52.570Z,101631.84
2023-04-30T15:29:19.680Z,101632.56
2023-04-30T15:31:47.091Z,101626.47
2023-04-30T15:34:14.242Z,101630.13
2023-04-30T15:36:41.426Z,101629.38
2023-04-30T15:39:08.577Z,101626.84
2023-04-30T15:41:35.874Z,101623.31
2023-04-30T15:44:02.987Z,101626.00
2023-04-30T15:46:30.315Z,101626.00
2023-04-30T15:48:57.782Z,101619.78
2023-04-30T15:51:24.987Z,101619.88
2023-04-30T15:53:52.385Z,101631.56
2023-04-30T15:56:20.336Z,101628.03
2023-04-30T15:58:47.495Z,101627.16
2023-04-30T16:01:14.795Z,101627.06
2023-04-30T16:03:42.297Z,101621.72
2023-04-30T16:06:09.808Z,101620.84
2023-04-30T16:08:37.059Z,101626.00
2023-04-30T16:11:04.161Z,101623.22
2023-04-30T16:13:31.286Z,101619.63
2023-04-30T16:15:58.631Z,101612.31
2023-04-30T16:18:25.849Z,101617.97
2023-04-30T16:20:53.446Z,101608.19
2023-04-30T16:23:20.821Z,101608.88
2023-04-30T16:25:48.294Z,101606.25
2023-04-30T16:28:15.607Z,101605.63
2023-04-30T16:30:42.789Z,101604.56
2023-04-30T16:33:09.971Z,101600.63
2023-04-30T16:35:37.158Z,101602.56
2023-04-30T16:38:04.462Z,101607.59
2023-04-30T16:40:31.643Z,101602.13
2023-04-30T16:42:59.674Z,101597.50
2023-04-30T16:45:27.223Z,101598.16
2023-04-30T16:47:54.595Z,101599.88
2023-04-30T16:50:24.168Z,101592.34
2023-04-30T16:52:51.310Z,101585.91
2023-04-30T16:55:18.443Z,101587.66
2023-04-30T16:57:46.146Z,101590.19
2023-04-30T17:00:14.303Z,101581.16
2023-04-30T17:02:42.493Z,101582.03
2023-04-30T17:05:09.855Z,101578.41
2023-04-30T17:07:37.339Z,101580.97
2023-04-30T17:10:05.108Z,101586.31
2023-04-30T17:12:32.274Z,101587.19
2023-04-30T17:14:59.407Z,101585.25
2023-04-30T17:17:26.684Z,101580.66
2023-04-30T17:19:53.990Z,101575.28
2023-04-30T17:22:21.317Z,101582.25
2023-04-30T17:24:48.519Z,101583.13
2023-04-30T17:27:15.818Z,101582.13
2023-04-30T17:29:43.012Z,101581.16
2023-04-30T17:32:11.201Z,101578.47
2023-04-30T17:34:38.432Z,101581.28
2023-04-30T17:37:05.873Z,101583.00
2023-04-30T17:39:33.063Z,101583.00
2023-04-30T17:42:00.815Z,101577.75
2023-04-30T17:44:28.264Z,101580.44
2023-04-30T17:46:55.594Z,101578.59
2023-04-30T17:49:23.026Z,101580.31
2023-04-30T17:51:50.360Z,101582.13
2023-04-30T17:54:17.604Z,101575.78
2023-04-30T17:56:44.870Z,101576.63
2023-04-30T17:59:12.530Z,101580.31
2023-04-30T18:01:40.388Z,101577.63
2023-04-30T18:04:08.087Z,101579.31
2023-04-30T18:06:35.519Z,101576.63
2023-04-30T18:09:04.138Z,101580.22
2023-04-30T18:11:31.434Z,101579.22
2023-04-30T18:13:58.722Z,101580.22
2023-04-30T18:16:25.976Z,101574.84
2023-04-30T18:18:53.116Z,101572.25
2023-04-30T18:21:20.373Z,101574.94
2023-04-30T18:23:48.015Z,101583.84
2023-04-30T18:26:15.149Z,101573.09
2023-04-30T18:28:42.441Z,101584.81
2023-04-30T18:31:11.523Z,101579.56
2023-04-30T18:33:38.777Z,101578.59
2023-04-30T18:36:07.449Z,101578.69
2023-04-30T18:38:34.898Z,101580.53
2023-04-30T18:41:02.332Z,101573.44
2023-04-30T18:43:29.462Z,101584.19
2023-04-30T18:45:56.778Z,101584.19
2023-04-30T18:48:24.149Z,101587.84
2023-04-30T18:50:51.470Z,101586.97
2023-04-30T18:53:18.752Z,101589.66
2023-04-30T18:55:46.038Z,101590.63
2023-04-30T18:58:13.358Z,101593.22
2023-04-30T19:00:43.677Z,101594.06
2023-04-30T19:03:10.990Z,101594.06
2023-04-30T19:05:38.246Z,101593.22
2023-04-30T19:08:05.438Z,101601.25
2023-04-30T19:10:33.579Z,101598.78
2023-04-30T19:13:00.807Z,101600.50
2023-04-30T19:15:29.720Z,101601.34
2023-04-30T19:17:57.817Z,101600.50
2023-04-30T19:20:25.012Z,101603.19
2023-04-30T19:22:52.336Z,101604.16
2023-04-30T19:25:19.727Z,101599.75
2023-04-30T19:27:46.903Z,101601.47
2023-04-30T19:30:14.568Z,101604.16
2023-04-30T19:32:41.799Z,101600.72
2023-04-30T19:35:09.007Z,101600.72
2023-04-30T19:37:36.706Z,101603.41
2023-04-30T19:40:07.315Z,101605.31
2023-04-30T19:42:34.432Z,101603.50
2023-04-30T19:45:01.570Z,101604.47
2023-04-30T19:47:28.738Z,101609.97
2023-04-30T19:49:56.076Z,101602.75
2023-04-30T19:52:23.369Z,101607.28
2023-04-30T19:54:50.540Z,101612.72
2023-04-30T19:57:17.750Z,101608.22
2023-04-30T19:59:47.096Z,101605.53
2023-04-30T20:02:14.586Z,101604.69
2023-04-30T20:04:41.837Z,101607.38
2023-04-30T20:07:09.083Z,101611.03
2023-04-30T20:09:37.298Z,101609.09
2023-04-30T20:12:04.827Z,101610.28
2023-04-30T20:14:31.938Z,101607.38
2023-04-30T20:16:59.227Z,101605.53
2023-04-30T20:19:26.603Z,101607.50
2023-04-30T20:21:54.061Z,101605.13
2023-04-30T20:24:21.986Z,101606.72
2023-04-30T20:26:49.223Z,101604.38
2023-04-30T20:29:18.463Z,101613.06
2023-04-30T20:31:46.587Z,101597.50
2023-04-30T20:34:13.769Z,101600.72
2023-04-30T20:36:40.934Z,101596.22
2023-04-30T20:39:08.725Z,101599.97
2023-04-30T20:41:36.146Z,101598.47
2023-04-30T20:44:03.314Z,101596.63
2023-04-30T20:46:32.292Z,101593.88
2023-04-30T20:49:04.220Z,101589.44
2023-04-30T20:51:31.420Z,101600.09
2023-04-30T20:54:00.330Z,101596.56
2023-04-30T20:56:27.693Z,101593.88
2023-04-30T20:58:54.972Z,101591.28
2023-04-30T21:01:22.531Z,101588.59
2023-04-30T21:03:51.353Z,101589.44
2023-04-30T21:06:18.908Z,101597.28
2023-04-30T21:08:46.352Z,101593.31
2023-04-30T21:11:14.207Z,101598.47
2023-04-30T21:13:41.754Z,101595.16
2023-04-30T21:16:08.957Z,101593.44
2023-04-30T21:18:36.575Z,101601.69
2023-04-30T21:21:04.666Z,101598.25
2023-04-30T21:23:32.749Z,101596.44
2023-04-30T21:25:59.909Z,101601.78
2023-04-30T21:28:27.214Z,101599.09
2023-04-30T21:30:54.417Z,101598.25
2023-04-30T21:33:21.847Z,101596.44
2023-04-30T21:35:49.203Z,101593.66
2023-04-30T21:38:16.348Z,101599.09
2023-04-30T21:40:43.535Z,101588.50
2023-04-30T21:43:10.690Z,101590.41
2023-04-30T21:45:37.800Z,101578.84
2023-04-30T21:48:05.549Z,101575.19
2023-04-30T21:50:32.787Z,101579.69
2023-04-30T21:52:59.914Z,101573.47
2023-04-30T21:55:27.353Z,101585.06
2023-04-30T21:57:54.547Z,101586.03
2023-04-30T22:00:21.655Z,101581.63
2023-04-30T22:02:49.234Z,101591.28
2023-04-30T22:05:17.100Z,101586.03
2023-04-30T22:07:44.595Z,101594.06
2023-04-30T22:10:12.030Z,101589.56
2023-04-30T22:12:39.885Z,101590.63
2023-04-30T22:15:07.328Z,101593.44
2023-04-30T22:17:34.642Z,101587.22
2023-04-30T22:20:01.773Z,101592.47
2023-04-30T22:22:28.909Z,101585.38
2023-04-30T22:24:56.501Z,101583.56
2023-04-30T22:27:23.656Z,101584.53
2023-04-30T22:29:50.842Z,101584.41
2023-04-30T22:32:19.439Z,101590.75
2023-04-30T22:34:46.615Z,101584.75
2023-04-30T22:37:13.754Z,101583.78
2023-04-30T22:39:41.193Z,101577.34
2023-04-30T22:42:08.424Z,101577.22
2023-04-30T22:44:35.662Z,101579.38
2023-04-30T22:47:02.868Z,101582.72
2023-04-30T22:49:31.727Z,101581.19
2023-04-30T22:51:59.734Z,101576.72
2023-04-30T22:54:26.883Z,101571.97
2023-04-30T22:56:54.016Z,101575.50
2023-04-30T22:59:21.329Z,101571.97
2023-04-30T23:01:48.456Z,101570.47
2023-04-30T23:04:15.620Z,101567.34
2023-04-30T23:06:42.976Z,101564.78
2023-04-30T23:09:10.323Z,101567.34
2023-04-30T23:11:37.455Z,101561.91
2023-04-30T23:14:04.793Z,101562.97
2023-04-30T23:16:32.112Z,101560.41
2023-04-30T23:18:59.296Z,101562.09
2023-04-30T23:21:26.841Z,101555.03
2023-04-30T23:23:54.026Z,101546.22
2023-04-30T23:26:21.387Z,101550.63
2023-04-30T23:28:48.609Z,101552.44
2023-04-30T23:31:17.664Z,101546.88
2023-04-30T23:33:44.807Z,101549.69
2023-04-30T23:36:12.199Z,101550.41
2023-04-30T23:38:39.327Z,101544.31
2023-04-30T23:41:06.515Z,101549.56
2023-04-30T23:43:33.634Z,101545.03
2023-04-30T23:46:00.787Z,101541.50
2023-04-30T23:48:28.005Z,101545.16
2023-04-30T23:51:02.008Z,101545.03
2023-04-30T23:53:29.196Z,101547.72
2023-04-30T23:55:57.763Z,101550.31
2023-04-30T23:58:25.194Z,101539.59
